sensor_id;sensor_type;location;lat;lon;timestamp;pressure;altitude;pressure_sealevel;temperature;humidity
63111;BME280;49201;53.426;10.300;2023-03-14T00:00:36;98881.00;;;11.37;100.00
63111;BME280;49201;53.426;10.300;2023-03-14T00:03:02;98901.50;;;11.37;100.00
63111;BME280;49201;53.426;10.300;2023-03-14T00:05:27;98910.94;;;11.35;100.00
63111;BME280;49201;53.426;10.300;2023-03-14T00:07:53;98916.97;;;11.32;100.00
63111;BME280;49201;53.426;10.300;2023-03-14T00:10:19;98937.47;;;11.32;100.00
63111;BME280;49201;53.426;10.300;2023-03-14T00:12:45;98932.34;;;11.32;100.00
63111;BME280;49201;53.426;10.300;2023-03-14T00:15:11;98936.59;;;11.32;100.00
63111;BME280;49201;53.426;10.300;2023-03-14T00:17:36;98940.06;;;11.29;100.00
63111;BME280;49201;53.426;10.300;2023-03-14T00:20:06;98931.59;;;11.26;100.00
63111;BME280;49201;53.426;10.300;2023-03-14T00:22:37;98930.81;;;11.19;100.00
63111;BME280;49201;53.426;10.300;2023-03-14T00:25:03;98923.22;;;11.13;100.00
63111;BME280;49201;53.426;10.300;2023-03-14T00:27:28;98919.88;;;11.08;100.00
63111;BME280;49201;53.426;10.300;2023-03-14T00:29:54;98917.34;;;11.07;100.00
63111;BME280;49201;53.426;10.300;2023-03-14T00:32:19;98916.47;;;11.06;100.00
63111;BME280;49201;53.426;10.300;2023-03-14T00:34:45;98919.03;;;11.06;100.00
63111;BME280;49201;53.426;10.300;2023-03-14T00:37:10;98916.56;;;11.00;100.00
63111;BME280;49201;53.426;10.300;2023-03-14T00:39:37;98910.66;;;10.95;100.00
63111;BME280;49201;53.426;10.300;2023-03-14T00:42:03;98902.22;;;10.90;100.00
63111;BME280;49201;53.426;10.300;2023-03-14T00:44:28;98884.38;;;10.83;100.00
63111;BME280;49201;53.426;10.300;2023-03-14T00:46:54;98882.72;;;10.80;100.00
63111;BME280;49201;53.426;10.300;2023-03-14T00:49:19;98874.28;;;10.74;100.00
63111;BME280;49201;53.426;10.300;2023-03-14T00:51:44;98870.09;;;10.67;100.00
63111;BME280;49201;53.426;10.300;2023-03-14T00:54:10;98844.56;;;10.64;100.00
63111;BME280;49201;53.426;10.300;2023-03-14T00:56:35;98843.72;;;10.60;100.00
63111;BME280;49201;53.426;10.300;2023-03-14T00:59:01;98850.63;;;10.55;100.00
63111;BME280;49201;53.426;10.300;2023-03-14T01:01:26;98866.06;;;10.49;100.00
63111;BME280;49201;53.426;10.300;2023-03-14T01:03:53;98884.00;;;10.46;100.00
63111;BME280;49201;53.426;10.300;2023-03-14T01:06:22;98905.34;;;10.44;100.00
63111;BME280;49201;53.426;10.300;2023-03-14T01:08:48;98907.88;;;10.45;100.00
63111;BME280;49201;53.426;10.300;2023-03-14T01:11:17;98914.75;;;10.43;100.00
63111;BME280;49201;53.426;10.300;2023-03-14T01:13:44;98907.91;;;10.44;100.00
63111;BME280;49201;53.426;10.300;2023-03-14T01:16:10;98911.31;;;10.44;100.00
63111;BME280;49201;53.426;10.300;2023-03-14T01:18:37;98894.22;;;10.48;100.00
63111;BME280;49201;53.426;10.300;2023-03-14T01:21:09;98895.00;;;10.51;100.00
63111;BME280;49201;53.426;10.300;2023-03-14T01:23:34;98891.63;;;10.52;100.00
63111;BME280;49201;53.426;10.300;2023-03-14T01:26:00;98886.44;;;10.55;100.00
63111;BME280;49201;53.426;10.300;2023-03-14T01:28:25;98878.75;;;10.57;100.00
63111;BME280;49201;53.426;10.300;2023-03-14T01:30:51;98880.44;;;10.59;100.00
63111;BME280;49201;53.426;10.300;2023-03-14T01:33:16;98879.53;;;10.63;100.00
63111;BME280;49201;53.426;10.300;2023-03-14T01:35:43;98867.53;;;10.65;100.00
63111;BME280;49201;53.426;10.300;2023-03-14T01:38:09;98853.00;;;10.69;100.00
63111;BME280;49201;53.426;10.300;2023-03-14T01:40:41;98844.44;;;10.71;100.00
63111;BME280;49201;53.426;10.300;2023-03-14T01:43:17;98847.81;;;10.75;100.00
63111;BME280;49201;53.426;10.300;2023-03-14T01:48:37;98866.47;;;10.83;100.00
63111;BME280;49201;53.426;10.300;2023-03-14T01:51:07;98862.13;;;10.88;100.00
63111;BME280;49201;53.426;10.300;2023-03-14T01:53:35;98842.47;;;10.90;100.00
63111;BME280;49201;53.426;10.300;2023-03-14T01:56:02;98834.75;;;10.93;100.00
63111;BME280;49201;53.426;10.300;2023-03-14T01:58:30;98834.66;;;10.97;100.00
63111;BME280;49201;53.426;10.300;2023-03-14T02:00:58;98845.75;;;10.99;100.00
63111;BME280;49201;53.426;10.300;2023-03-14T02:03:25;98821.84;;;10.99;100.00
63111;BME280;49201;53.426;10.300;2023-03-14T02:05:53;98833.00;;;10.95;100.00
63111;BME280;49201;53.426;10.300;2023-03-14T02:08:22;98813.50;;;10.86;100.00
63111;BME280;49201;53.426;10.300;2023-03-14T02:10:52;98820.41;;;10.81;100.00
63111;BME280;49201;53.426;10.300;2023-03-14T02:13:32;98812.00;;;10.72;100.00
63111;BME280;49201;53.426;10.300;2023-03-14T02:16:16;98808.63;;;10.68;100.00
63111;BME280;49201;53.426;10.300;2023-03-14T02:19:02;98773.72;;;10.64;100.00
63111;BME280;49201;53.426;10.300;2023-03-14T02:22:07;98752.44;;;10.61;100.00
63111;BME280;49201;53.426;10.300;2023-03-14T02:27:34;98763.59;;;10.57;100.00
63111;BME280;49201;53.426;10.300;2023-03-14T02:30:03;98773.84;;;10.54;100.00
63111;BME280;49201;53.426;10.300;2023-03-14T02:32:33;98767.94;;;10.50;100.00
63111;BME280;49201;53.426;10.300;2023-03-14T02:35:03;98776.50;;;10.48;100.00
63111;BME280;49201;53.426;10.300;2023-03-14T02:37:55;98769.75;;;10.42;100.00
63111;BME280;49201;53.426;10.300;2023-03-14T02:40:25;98782.63;;;10.38;100.00
63111;BME280;49201;53.426;10.300;2023-03-14T02:42:51;98780.97;;;10.32;100.00
63111;BME280;49201;53.426;10.300;2023-03-14T02:47:48;98800.72;;;10.23;100.00
63111;BME280;49201;53.426;10.300;2023-03-14T02:50:20;98805.84;;;10.24;100.00
63111;BME280;49201;53.426;10.300;2023-03-14T02:52:47;98807.56;;;10.21;100.00
63111;BME280;49201;53.426;10.300;2023-03-14T02:55:13;98805.88;;;10.18;100.00
63111;BME280;49201;53.426;10.300;2023-03-14T02:57:41;98807.56;;;10.19;100.00
63111;BME280;49201;53.426;10.300;2023-03-14T03:00:07;98805.88;;;10.20;100.00
63111;BME280;49201;53.426;10.300;2023-03-14T03:02:35;98810.13;;;10.19;100.00
63111;BME280;49201;53.426;10.300;2023-03-14T03:05:01;98800.78;;;10.17;100.00
63111;BME280;49201;53.426;10.300;2023-03-14T03:07:26;98802.53;;;10.16;100.00
63111;BME280;49201;53.426;10.300;2023-03-14T03:09:54;98803.34;;;10.17;100.00
63111;BME280;49201;53.426;10.300;2023-03-14T03:12:19;98794.84;;;10.18;100.00
63111;BME280;49201;53.426;10.300;2023-03-14T03:14:45;98793.09;;;10.18;100.00
63111;BME280;49201;53.426;10.300;2023-03-14T03:17:10;98792.22;;;10.19;100.00
63111;BME280;49201;53.426;10.300;2023-03-14T03:19:37;98787.09;;;10.22;100.00
63111;BME280;49201;53.426;10.300;2023-03-14T03:22:02;98783.72;;;10.19;100.00
63111;BME280;49201;53.426;10.300;2023-03-14T03:24:28;98773.50;;;10.17;100.00
63111;BME280;49201;53.426;10.300;2023-03-14T03:26:54;98769.28;;;10.16;100.00
63111;BME280;49201;53.426;10.300;2023-03-14T03:29:19;98765.88;;;10.14;100.00
63111;BME280;49201;53.426;10.300;2023-03-14T03:31:45;98763.34;;;10.13;100.00
63111;BME280;49201;53.426;10.300;2023-03-14T03:34:13;98759.88;;;10.17;100.00
63111;BME280;49201;53.426;10.300;2023-03-14T03:36:39;98754.75;;;10.18;100.00
63111;BME280;49201;53.426;10.300;2023-03-14T03:39:05;98763.25;;;10.20;100.00
63111;BME280;49201;53.426;10.300;2023-03-14T03:41:31;98756.41;;;10.21;100.00
63111;BME280;49201;53.426;10.300;2023-03-14T03:43:57;98753.03;;;10.20;100.00
63111;BME280;49201;53.426;10.300;2023-03-14T03:46:23;98755.53;;;10.23;100.00
63111;BME280;49201;53.426;10.300;2023-03-14T03:48:56;98749.56;;;10.24;100.00
63111;BME280;49201;53.426;10.300;2023-03-14T03:51:22;98745.28;;;10.23;100.00
63111;BME280;49201;53.426;10.300;2023-03-14T03:53:47;98745.25;;;10.26;100.00
63111;BME280;49201;53.426;10.300;2023-03-14T03:56:17;98746.13;;;10.27;100.00
63111;BME280;49201;53.426;10.300;2023-03-14T03:58:43;98744.38;;;10.29;100.00
63111;BME280;49201;53.426;10.300;2023-03-14T04:01:09;98740.03;;;10.34;100.00
63111;BME280;49201;53.426;10.300;2023-03-14T04:03:36;98735.03;;;10.28;100.00
63111;BME280;49201;53.426;10.300;2023-03-14T04:06:07;98735.03;;;10.26;100.00
63111;BME280;49201;53.426;10.300;2023-03-14T04:08:36;98724.66;;;10.38;100.00
63111;BME280;49201;53.426;10.300;2023-03-14T04:11:03;98735.69;;;10.42;100.00
63111;BME280;49201;53.426;10.300;2023-03-14T04:13:47;98726.31;;;10.39;100.00
63111;BME280;49201;53.426;10.300;2023-03-14T04:16:16;98724.69;;;10.34;100.00
63111;BME280;49201;53.426;10.300;2023-03-14T04:18:43;98723.00;;;10.34;100.00
63111;BME280;49201;53.426;10.300;2023-03-14T04:21:08;98720.47;;;10.30;100.00
63111;BME280;49201;53.426;10.300;2023-03-14T04:23:44;98719.66;;;10.29;100.00
63111;BME280;49201;53.426;10.300;2023-03-14T04:26:09;98711.88;;;10.37;100.00
63111;BME280;49201;53.426;10.300;2023-03-14T04:28:35;98714.19;;;10.53;100.00
63111;BME280;49201;53.426;10.300;2023-03-14T04:31:18;98714.06;;;10.61;100.00
63111;BME280;49201;53.426;10.300;2023-03-14T04:33:44;98707.06;;;10.70;100.00
63111;BME280;49201;53.426;10.300;2023-03-14T04:36:10;98706.22;;;10.71;100.00
63111;BME280;49201;53.426;10.300;2023-03-14T04:38:36;98713.78;;;10.77;100.00
63111;BME280;49201;53.426;10.300;2023-03-14T04:41:02;98709.44;;;10.84;100.00
63111;BME280;49201;53.426;10.300;2023-03-14T04:43:32;98693.97;;;10.88;100.00
63111;BME280;49201;53.426;10.300;2023-03-14T04:46:06;98703.41;;;10.86;100.00
63111;BME280;49201;53.426;10.300;2023-03-14T04:48:32;98689.72;;;10.89;100.00
63111;BME280;49201;53.426;10.300;2023-03-14T04:50:59;98684.56;;;10.92;100.00
63111;BME280;49201;53.426;10.300;2023-03-14T04:53:27;98685.34;;;10.94;100.00
63111;BME280;49201;53.426;10.300;2023-03-14T04:55:55;98698.03;;;11.00;100.00
63111;BME280;49201;53.426;10.300;2023-03-14T04:58:23;98684.34;;;11.02;100.00
63111;BME280;49201;53.426;10.300;2023-03-14T05:00:50;98692.97;;;10.98;100.00
63111;BME280;49201;53.426;10.300;2023-03-14T05:03:34;98690.31;;;11.03;100.00
63111;BME280;49201;53.426;10.300;2023-03-14T05:06:12;98680.03;;;11.06;100.00
63111;BME280;49201;53.426;10.300;2023-03-14T05:08:58;98677.41;;;11.09;100.00
63111;BME280;49201;53.426;10.300;2023-03-14T05:11:44;98674.84;;;11.07;100.00
63111;BME280;49201;53.426;10.300;2023-03-14T05:14:28;98677.41;;;11.09;100.00
63111;BME280;49201;53.426;10.300;2023-03-14T05:16:56;98674.84;;;11.07;100.00
63111;BME280;49201;53.426;10.300;2023-03-14T05:19:45;98673.28;;;11.02;100.00
63111;BME280;49201;53.426;10.300;2023-03-14T05:22:31;98679.31;;;10.98;100.00
63111;BME280;49201;53.426;10.300;2023-03-14T05:25:17;98675.84;;;11.00;100.00
63111;BME280;49201;53.426;10.300;2023-03-14T05:27:59;98668.22;;;10.97;100.00
63111;BME280;49201;53.426;10.300;2023-03-14T05:30:49;98667.44;;;10.92;100.00
63111;BME280;49201;53.426;10.300;2023-03-14T05:33:40;98670.03;;;10.91;100.00
63111;BME280;49201;53.426;10.300;2023-03-14T05:36:35;98656.44;;;10.87;100.00
63111;BME280;49201;53.426;10.300;2023-03-14T05:39:23;98658.19;;;10.87;100.00
63111;BME280;49201;53.426;10.300;2023-03-14T05:42:21;98657.31;;;10.88;100.00
63111;BME280;49201;53.426;10.300;2023-03-14T05:45:16;98653.06;;;10.87;100.00
63111;BME280;49201;53.426;10.300;2023-03-14T05:48:08;98659.88;;;10.88;100.00
63111;BME280;49201;53.426;10.300;2023-03-14T05:50:57;98660.66;;;10.90;100.00
63111;BME280;49201;53.426;10.300;2023-03-14T05:53:35;98659.75;;;10.94;100.00
63111;BME280;49201;53.426;10.300;2023-03-14T05:56:23;98655.56;;;10.90;100.00
63111;BME280;49201;53.426;10.300;2023-03-14T05:59:14;98645.28;;;10.91;100.00
63111;BME280;49201;53.426;10.300;2023-03-14T06:01:49;98652.94;;;10.93;100.00
63111;BME280;49201;53.426;10.300;2023-03-14T06:04:19;98656.41;;;10.90;100.00
63111;BME280;49201;53.426;10.300;2023-03-14T06:06:49;98661.53;;;10.90;100.00
63111;BME280;49201;53.426;10.300;2023-03-14T06:09:15;98651.25;;;10.92;100.00
63111;BME280;49201;53.426;10.300;2023-03-14T06:11:42;98659.78;;;10.91;100.00
63111;BME280;49201;53.426;10.300;2023-03-14T06:14:07;98658.97;;;10.90;100.00
63111;BME280;49201;53.426;10.300;2023-03-14T06:16:33;98658.09;;;10.91;100.00
63111;BME280;49201;53.426;10.300;2023-03-14T06:19:00;98660.66;;;10.91;100.00
63111;BME280;49201;53.426;10.300;2023-03-14T06:21:27;98661.53;;;10.90;100.00
63111;BME280;49201;53.426;10.300;2023-03-14T06:23:52;98666.66;;;10.89;100.00
63111;BME280;49201;53.426;10.300;2023-03-14T06:26:19;98670.09;;;10.88;100.00
63111;BME280;49201;53.426;10.300;2023-03-14T06:28:44;98665.03;;;10.85;100.00
63111;BME280;49201;53.426;10.300;2023-03-14T06:31:10;98667.59;;;10.83;100.00
63111;BME280;49201;53.426;10.300;2023-03-14T06:33:44;98677.84;;;10.83;100.00
63111;BME280;49201;53.426;10.300;2023-03-14T06:36:10;98678.72;;;10.82;100.00
63111;BME280;49201;53.426;10.300;2023-03-14T06:38:39;98687.31;;;10.80;100.00
63111;BME280;49201;53.426;10.300;2023-03-14T06:41:06;98677.91;;;10.80;100.00
63111;BME280;49201;53.426;10.300;2023-03-14T06:43:38;98699.28;;;10.78;100.00
63111;BME280;49201;53.426;10.300;2023-03-14T06:46:05;98687.31;;;10.78;100.00
63111;BME280;49201;53.426;10.300;2023-03-14T06:48:33;98691.56;;;10.79;100.00
63111;BME280;49201;53.426;10.300;2023-03-14T06:50:58;98697.47;;;10.84;100.00
63111;BME280;49201;53.426;10.300;2023-03-14T06:53:24;98690.59;;;10.86;100.00
63111;BME280;49201;53.426;10.300;2023-03-14T06:55:50;98698.28;;;10.86;100.00
63111;BME280;49201;53.426;10.300;2023-03-14T06:58:17;98700.88;;;10.83;100.00
63111;BME280;49201;53.426;10.300;2023-03-14T07:00:44;98698.34;;;10.82;100.00
63111;BME280;49201;53.426;10.300;2023-03-14T07:03:13;98703.47;;;10.82;100.00
63111;BME280;49201;53.426;10.300;2023-03-14T07:05:41;98720.56;;;10.81;100.00
63111;BME280;49201;53.426;10.300;2023-03-14T07:08:08;98724.84;;;10.79;100.00
63111;BME280;49201;53.426;10.300;2023-03-14T07:10:34;98721.47;;;10.79;100.00
63111;BME280;49201;53.426;10.300;2023-03-14T07:12:59;98727.38;;;10.82;100.00
63111;BME280;49201;53.426;10.300;2023-03-14T07:15:28;98726.44;;;10.86;100.00
63111;BME280;49201;53.426;10.300;2023-03-14T07:17:58;98731.56;;;10.86;100.00
63111;BME280;49201;53.426;10.300;2023-03-14T07:20:24;98735.06;;;10.81;100.00
63111;BME280;49201;53.426;10.300;2023-03-14T07:22:50;98731.72;;;10.77;100.00
63111;BME280;49201;53.426;10.300;2023-03-14T07:25:20;98730.94;;;10.74;100.00
63111;BME280;49201;53.426;10.300;2023-03-14T07:27:46;98748.84;;;10.74;100.00
63111;BME280;49201;53.426;10.300;2023-03-14T07:30:15;98740.28;;;10.75;100.00
63111;BME280;49201;53.426;10.300;2023-03-14T07:32:40;98736.78;;;10.80;100.00
63111;BME280;49201;53.426;10.300;2023-03-14T07:35:06;98739.25;;;10.86;100.00
63111;BME280;49201;53.426;10.300;2023-03-14T07:37:35;98744.19;;;10.98;100.00
63111;BME280;49201;53.426;10.300;2023-03-14T07:40:02;98748.31;;;11.05;100.00
63111;BME280;49201;53.426;10.300;2023-03-14T07:42:30;98747.47;;;11.05;100.00
63111;BME280;49201;53.426;10.300;2023-03-14T07:45:18;98743.78;;;11.21;100.00
63111;BME280;49201;53.426;10.300;2023-03-14T07:47:43;98736.06;;;11.24;100.00
63111;BME280;49201;53.426;10.300;2023-03-14T07:50:09;98749.84;;;11.15;100.00
63111;BME280;49201;53.426;10.300;2023-03-14T07:52:35;98743.03;;;11.16;100.00
63111;BME280;49201;53.426;10.300;2023-03-14T07:55:00;98746.34;;;11.21;100.00
63111;BME280;49201;53.426;10.300;2023-03-14T07:57:25;98753.91;;;11.28;100.00
63111;BME280;49201;53.426;10.300;2023-03-14T07:59:51;98744.41;;;11.35;100.00
63111;BME280;49201;53.426;10.300;2023-03-14T08:02:16;98735.66;;;11.46;100.00
63111;BME280;49201;53.426;10.300;2023-03-14T08:04:43;98739.97;;;11.44;100.00
63111;BME280;49201;53.426;10.300;2023-03-14T08:07:08;98764.03;;;11.34;100.00
63111;BME280;49201;53.426;10.300;2023-03-14T08:09:34;98749.34;;;11.45;100.00
63111;BME280;49201;53.426;10.300;2023-03-14T08:11:59;98745.09;;;11.44;100.00
63111;BME280;49201;53.426;10.300;2023-03-14T08:14:24;98747.88;;;11.31;100.00
63111;BME280;49201;53.426;10.300;2023-03-14T08:16:50;98745.38;;;11.28;100.00
63111;BME280;49201;53.426;10.300;2023-03-14T08:19:16;98746.25;;;11.25;100.00
63111;BME280;49201;53.426;10.300;2023-03-14T08:21:42;98750.59;;;11.22;100.00
63111;BME280;49201;53.426;10.300;2023-03-14T08:24:07;98747.28;;;11.15;100.00
63111;BME280;49201;53.426;10.300;2023-03-14T08:26:33;98745.59;;;11.16;100.00
63111;BME280;49201;53.426;10.300;2023-03-14T08:28:58;98730.88;;;11.25;100.00
63111;BME280;49201;53.426;10.300;2023-03-14T08:31:24;98729.84;;;11.37;100.00
63111;BME280;49201;53.426;10.300;2023-03-14T08:33:49;98732.03;;;11.59;100.00
63111;BME280;49201;53.426;10.300;2023-03-14T08:36:17;98726.94;;;12.00;100.00
63111;BME280;49201;53.426;10.300;2023-03-14T08:38:43;98714.81;;;12.07;100.00
63111;BME280;49201;53.426;10.300;2023-03-14T08:41:09;98696.69;;;12.52;100.00
63111;BME280;49201;53.426;10.300;2023-03-14T08:43:34;98688.34;;;12.79;100.00
63111;BME280;49201;53.426;10.300;2023-03-14T08:46:01;98679.94;;;12.73;100.00
63111;BME280;49201;53.426;10.300;2023-03-14T08:48:27;98686.88;;;12.69;100.00
63111;BME280;49201;53.426;10.300;2023-03-14T08:50:55;98675.34;;;12.84;100.00
63111;BME280;49201;53.426;10.300;2023-03-14T08:53:21;98689.69;;;12.59;100.00
63111;BME280;49201;53.426;10.300;2023-03-14T08:55:52;98687.28;;;12.53;100.00
63111;BME280;49201;53.426;10.300;2023-03-14T08:58:18;98689.38;;;12.36;100.00
63111;BME280;49201;53.426;10.300;2023-03-14T09:00:43;98681.31;;;12.51;100.00
63111;BME280;49201;53.426;10.300;2023-03-14T09:03:09;98650.50;;;12.86;100.00
63111;BME280;49201;53.426;10.300;2023-03-14T09:05:34;98613.50;;;12.91;100.00
63111;BME280;49201;53.426;10.300;2023-03-14T09:08:00;98631.13;;;12.73;100.00
63111;BME280;49201;53.426;10.300;2023-03-14T09:10:25;98596.34;;;12.93;100.00
63111;BME280;49201;53.426;10.300;2023-03-14T09:12:50;98598.78;;;13.30;100.00
63111;BME280;49201;53.426;10.300;2023-03-14T09:15:16;98588.66;;;13.55;100.00
63111;BME280;49201;53.426;10.300;2023-03-14T09:17:43;98590.44;;;13.53;100.00
63111;BME280;49201;53.426;10.300;2023-03-14T09:20:09;98588.88;;;13.18;100.00
63111;BME280;49201;53.426;10.300;2023-03-14T09:22:35;98614.31;;;12.95;100.00
63111;BME280;49201;53.426;10.300;2023-03-14T09:25:05;98638.69;;;12.79;100.00
63111;BME280;49201;53.426;10.300;2023-03-14T09:27:30;98590.97;;;13.04;100.00
63111;BME280;49201;53.426;10.300;2023-03-14T09:29:56;98474.59;;;14.84;100.00
63111;BME280;49201;53.426;10.300;2023-03-14T09:32:21;98457.41;;;13.59;100.00
63111;BME280;49201;53.426;10.300;2023-03-14T09:34:47;98551.97;;;13.21;100.00
63111;BME280;49201;53.426;10.300;2023-03-14T09:37:12;98620.25;;;12.97;100.00
63111;BME280;49201;53.426;10.300;2023-03-14T09:39:38;98646.72;;;13.01;100.00
63111;BME280;49201;53.426;10.300;2023-03-14T09:42:06;98642.13;;;12.78;100.00
63111;BME280;49201;53.426;10.300;2023-03-14T09:44:38;98642.78;;;12.86;100.00
63111;BME280;49201;53.426;10.300;2023-03-14T09:47:11;98648.69;;;12.89;100.00
63111;BME280;49201;53.426;10.300;2023-03-14T09:49:41;98649.63;;;12.87;100.00
63111;BME280;49201;53.426;10.300;2023-03-14T09:52:17;98626.22;;;12.99;100.00
63111;BME280;49201;53.426;10.300;2023-03-14T09:54:47;98604.19;;;13.21;100.00
63111;BME280;49201;53.426;10.300;2023-03-14T09:57:15;98582.69;;;13.24;100.00
63111;BME280;49201;53.426;10.300;2023-03-14T09:59:44;98612.75;;;13.22;100.00
63111;BME280;49201;53.426;10.300;2023-03-14T10:02:17;98623.53;;;13.04;100.00
63111;BME280;49201;53.426;10.300;2023-03-14T10:04:45;98638.44;;;12.88;100.00
63111;BME280;49201;53.426;10.300;2023-03-14T10:07:17;98658.34;;;12.80;100.00
63111;BME280;49201;53.426;10.300;2023-03-14T10:09:49;98677.41;;;12.70;100.00
63111;BME280;49201;53.426;10.300;2023-03-14T10:12:17;98725.59;;;12.60;100.00
63111;BME280;49201;53.426;10.300;2023-03-14T10:14:51;98746.06;;;12.63;100.00
63111;BME280;49201;53.426;10.300;2023-03-14T10:17:18;98773.88;;;12.45;100.00
63111;BME280;49201;53.426;10.300;2023-03-14T10:19:55;98826.66;;;12.15;100.00
63111;BME280;49201;53.426;10.300;2023-03-14T10:22:23;98811.19;;;11.76;100.00
63111;BME280;49201;53.426;10.300;2023-03-14T10:24:53;98791.09;;;11.52;100.00
63111;BME280;49201;53.426;10.300;2023-03-14T10:27:27;98815.19;;;10.86;100.00
63111;BME280;49201;53.426;10.300;2023-03-14T10:29:56;98826.16;;;10.35;100.00
63111;BME280;49201;53.426;10.300;2023-03-14T10:32:28;98833.75;;;10.41;100.00
63111;BME280;49201;53.426;10.300;2023-03-14T10:35:07;98832.25;;;10.22;100.00
63111;BME280;49201;53.426;10.300;2023-03-14T10:37:32;98841.06;;;9.95;100.00
63111;BME280;49201;53.426;10.300;2023-03-14T10:40:00;98847.25;;;9.75;100.00
63111;BME280;49201;53.426;10.300;2023-03-14T10:42:33;98861.84;;;9.65;100.00
63111;BME280;49201;53.426;10.300;2023-03-14T10:45:05;98867.84;;;9.60;100.00
63111;BME280;49201;53.426;10.300;2023-03-14T10:47:34;98880.66;;;9.54;100.00
63111;BME280;49201;53.426;10.300;2023-03-14T10:52:47;98901.25;;;9.33;100.00
63111;BME280;49201;53.426;10.300;2023-03-14T10:55:14;98904.66;;;9.33;100.00
63111;BME280;49201;53.426;10.300;2023-03-14T10:57:43;98921.81;;;9.16;100.00
63111;BME280;49201;53.426;10.300;2023-03-14T11:00:27;98927.06;;;8.92;100.00
63111;BME280;49201;53.426;10.300;2023-03-14T11:03:03;98938.16;;;8.81;100.00
63111;BME280;49201;53.426;10.300;2023-03-14T11:05:40;98966.31;;;8.63;100.00
63111;BME280;49201;53.426;10.300;2023-03-14T11:08:24;98975.66;;;8.55;100.00
63111;BME280;49201;53.426;10.300;2023-03-14T11:11:42;98997.81;;;8.41;100.00
63111;BME280;49201;53.426;10.300;2023-03-14T11:16:24;99025.88;;;7.99;100.00
63111;BME280;49201;53.426;10.300;2023-03-14T11:27:20;99073.28;;;7.38;100.00
63111;BME280;49201;53.426;10.300;2023-03-14T11:30:58;99083.41;;;7.22;100.00
63111;BME280;49201;53.426;10.300;2023-03-14T11:33:37;99098.56;;;6.96;100.00
63111;BME280;49201;53.426;10.300;2023-03-14T11:36:08;99118.84;;;6.81;100.00
63111;BME280;49201;53.426;10.300;2023-03-14T11:41:14;99159.09;;;6.29;100.00
63111;BME280;49201;53.426;10.300;2023-03-14T11:43:46;99180.25;;;6.25;100.00
63111;BME280;49201;53.426;10.300;2023-03-14T11:48:45;99183.63;;;6.24;100.00
63111;BME280;49201;53.426;10.300;2023-03-14T11:51:22;99214.91;;;6.18;100.00
63111;BME280;49201;53.426;10.300;2023-03-14T11:56:59;99220.00;;;6.17;100.00
63111;BME280;49201;53.426;10.300;2023-03-14T11:59:34;99228.44;;;6.14;100.00
63111;BME280;49201;53.426;10.300;2023-03-14T12:02:22;99247.75;;;5.99;100.00
63111;BME280;49201;53.426;10.300;2023-03-14T12:10:08;99269.94;;;6.15;100.00
63111;BME280;49201;53.426;10.300;2023-03-14T12:12:34;99282.59;;;6.13;100.00
63111;BME280;49201;53.426;10.300;2023-03-14T12:15:01;99286.75;;;6.04;100.00
63111;BME280;49201;53.426;10.300;2023-03-14T12:17:35;99291.00;;;6.06;100.00
63111;BME280;49201;53.426;10.300;2023-03-14T12:20:15;99297.00;;;6.11;100.00
63111;BME280;49201;53.426;10.300;2023-03-14T12:23:04;99301.22;;;6.12;100.00
63111;BME280;49201;53.426;10.300;2023-03-14T12:25:30;99306.25;;;6.06;100.00
63111;BME280;49201;53.426;10.300;2023-03-14T12:35:39;99311.94;;;5.87;100.00
63111;BME280;49201;53.426;10.300;2023-03-14T12:38:09;99349.22;;;5.90;100.00
63111;BME280;49201;53.426;10.300;2023-03-14T12:43:29;99353.56;;;5.98;100.00
63111;BME280;49201;53.426;10.300;2023-03-14T12:48:44;99368.06;;;6.07;100.00
63111;BME280;49201;53.426;10.300;2023-03-14T12:51:15;99368.09;;;6.10;100.00
63111;BME280;49201;53.426;10.300;2023-03-14T12:59:22;99380.91;;;6.17;100.00
63111;BME280;49201;53.426;10.300;2023-03-14T13:01:59;99395.41;;;6.24;100.00
63111;BME280;49201;53.426;10.300;2023-03-14T13:07:12;99421.72;;;6.28;100.00
63111;BME280;49201;53.426;10.300;2023-03-14T13:10:04;99412.34;;;6.24;100.00
63111;BME280;49201;53.426;10.300;2023-03-14T13:12:38;99415.78;;;6.26;100.00
63111;BME280;49201;53.426;10.300;2023-03-14T13:15:35;99422.69;;;6.37;100.00
63111;BME280;49201;53.426;10.300;2023-03-14T13:18:15;99430.41;;;6.45;100.00
63111;BME280;49201;53.426;10.300;2023-03-14T13:20:45;99424.41;;;6.41;100.00
63111;BME280;49201;53.426;10.300;2023-03-14T13:23:23;99436.44;;;6.53;100.00
63111;BME280;49201;53.426;10.300;2023-03-14T13:25:49;99437.34;;;6.56;100.00
63111;BME280;49201;53.426;10.300;2023-03-14T13:28:16;99456.88;;;6.59;100.00
63111;BME280;49201;53.426;10.300;2023-03-14T13:30:44;99455.03;;;6.50;100.00
63111;BME280;49201;53.426;10.300;2023-03-14T13:33:18;99472.66;;;6.35;100.00
63111;BME280;49201;53.426;10.300;2023-03-14T13:35:46;99507.19;;;6.23;100.00
63111;BME280;49201;53.426;10.300;2023-03-14T13:38:21;99519.00;;;6.18;100.00
63111;BME280;49201;53.426;10.300;2023-03-14T13:40:49;99496.16;;;6.22;100.00
63111;BME280;49201;53.426;10.300;2023-03-14T13:48:28;99498.94;;;6.36;100.00
63111;BME280;49201;53.426;10.300;2023-03-14T13:50:56;99505.28;;;6.66;100.00
63111;BME280;49201;53.426;10.300;2023-03-14T13:53:24;99485.34;;;7.01;100.00
63111;BME280;49201;53.426;10.300;2023-03-14T13:55:51;99393.78;;;7.04;100.00
63111;BME280;49201;53.426;10.300;2023-03-14T13:58:24;99347.25;;;7.17;100.00
63111;BME280;49201;53.426;10.300;2023-03-14T14:03:45;98971.38;;;6.93;100.00